sensor_id;sensor_type;location;lat;lon;timestamp;temperature;humidity
39315;DHT22;28703;44.412;11.918;2024-02-15T00:00:53;6.60;99.90
39315;DHT22;28703;44.412;11.918;2024-02-15T00:03:19;6.50;99.90
39315;DHT22;28703;44.412;11.918;2024-02-15T00:05:45;6.50;99.90
39315;DHT22;28703;44.412;11.918;2024-02-15T00:08:12;6.40;99.90
39315;DHT22;28703;44.412;11.918;2024-02-15T00:10:37;6.40;99.90
39315;DHT22;28703;44.412;11.918;2024-02-15T00:13:03;6.40;99.90
39315;DHT22;28703;44.412;11.918;2024-02-15T00:15:32;6.40;99.90
39315;DHT22;28703;44.412;11.918;2024-02-15T00:17:59;6.40;99.90
39315;DHT22;28703;44.412;11.918;2024-02-15T00:20:25;6.40;99.90
39315;DHT22;28703;44.412;11.918;2024-02-15T00:22:51;6.50;99.90
39315;DHT22;28703;44.412;11.918;2024-02-15T00:25:18;6.50;99.90
39315;DHT22;28703;44.412;11.918;2024-02-15T00:27:45;6.60;99.90
39315;DHT22;28703;44.412;11.918;2024-02-15T00:30:11;6.60;99.90
39315;DHT22;28703;44.412;11.918;2024-02-15T00:32:37;6.60;99.90
39315;DHT22;28703;44.412;11.918;2024-02-15T00:35:04;6.70;99.90
39315;DHT22;28703;44.412;11.918;2024-02-15T00:37:35;6.70;99.90
39315;DHT22;28703;44.412;11.918;2024-02-15T00:40:01;6.80;99.90
39315;DHT22;28703;44.412;11.918;2024-02-15T00:42:30;7.00;99.90
39315;DHT22;28703;44.412;11.918;2024-02-15T00:44:59;7.00;99.90
39315;DHT22;28703;44.412;11.918;2024-02-15T00:47:24;7.00;99.90
39315;DHT22;28703;44.412;11.918;2024-02-15T00:49:50;7.00;99.90
39315;DHT22;28703;44.412;11.918;2024-02-15T00:52:16;7.10;99.90
39315;DHT22;28703;44.412;11.918;2024-02-15T00:54:46;7.10;99.90
39315;DHT22;28703;44.412;11.918;2024-02-15T00:57:11;7.10;99.90
39315;DHT22;28703;44.412;11.918;2024-02-15T00:59:37;7.10;99.90
39315;DHT22;28703;44.412;11.918;2024-02-15T01:02:04;7.10;99.90
39315;DHT22;28703;44.412;11.918;2024-02-15T01:04:31;7.10;99.90
39315;DHT22;28703;44.412;11.918;2024-02-15T01:06:56;7.10;99.90
39315;DHT22;28703;44.412;11.918;2024-02-15T01:09:23;7.10;99.90
39315;DHT22;28703;44.412;11.918;2024-02-15T01:11:48;7.00;99.90
39315;DHT22;28703;44.412;11.918;2024-02-15T01:14:15;6.90;99.90
39315;DHT22;28703;44.412;11.918;2024-02-15T01:16:41;6.80;99.90
39315;DHT22;28703;44.412;11.918;2024-02-15T01:19:07;6.70;99.90
39315;DHT22;28703;44.412;11.918;2024-02-15T01:21:33;6.60;99.90
39315;DHT22;28703;44.412;11.918;2024-02-15T01:23:59;6.50;99.90
39315;DHT22;28703;44.412;11.918;2024-02-15T01:26:29;6.50;99.90
39315;DHT22;28703;44.412;11.918;2024-02-15T01:28:55;6.50;99.90
39315;DHT22;28703;44.412;11.918;2024-02-15T01:31:21;6.40;99.90
39315;DHT22;28703;44.412;11.918;2024-02-15T01:33:48;6.50;99.90
39315;DHT22;28703;44.412;11.918;2024-02-15T01:36:17;6.40;99.90
39315;DHT22;28703;44.412;11.918;2024-02-15T01:38:44;6.30;99.90
39315;DHT22;28703;44.412;11.918;2024-02-15T01:41:10;6.30;99.90
39315;DHT22;28703;44.412;11.918;2024-02-15T01:43:37;6.20;99.90
39315;DHT22;28703;44.412;11.918;2024-02-15T01:46:08;6.20;99.90
39315;DHT22;28703;44.412;11.918;2024-02-15T01:48:36;6.20;99.90
39315;DHT22;28703;44.412;11.918;2024-02-15T01:51:02;6.20;99.90
39315;DHT22;28703;44.412;11.918;2024-02-15T01:53:29;6.30;99.90
39315;DHT22;28703;44.412;11.918;2024-02-15T01:55:56;6.30;99.90
39315;DHT22;28703;44.412;11.918;2024-02-15T01:58:25;6.40;99.90
39315;DHT22;28703;44.412;11.918;2024-02-15T02:00:53;6.40;99.90
39315;DHT22;28703;44.412;11.918;2024-02-15T02:03:21;6.40;99.90
39315;DHT22;28703;44.412;11.918;2024-02-15T02:05:47;6.50;99.90
39315;DHT22;28703;44.412;11.918;2024-02-15T02:08:13;6.50;99.90
39315;DHT22;28703;44.412;11.918;2024-02-15T02:10:39;6.40;99.90
39315;DHT22;28703;44.412;11.918;2024-02-15T02:13:05;6.40;99.90
39315;DHT22;28703;44.412;11.918;2024-02-15T02:15:32;6.40;99.90
39315;DHT22;28703;44.412;11.918;2024-02-15T02:17:58;6.30;99.90
39315;DHT22;28703;44.412;11.918;2024-02-15T02:20:26;6.30;99.90
39315;DHT22;28703;44.412;11.918;2024-02-15T02:22:53;6.30;99.90
39315;DHT22;28703;44.412;11.918;2024-02-15T02:25:24;6.30;99.90
39315;DHT22;28703;44.412;11.918;2024-02-15T02:27:52;6.20;99.90
39315;DHT22;28703;44.412;11.918;2024-02-15T02:30:17;6.20;99.90
39315;DHT22;28703;44.412;11.918;2024-02-15T02:32:45;6.10;99.90
39315;DHT22;28703;44.412;11.918;2024-02-15T02:35:14;6.10;99.90
39315;DHT22;28703;44.412;11.918;2024-02-15T02:37:42;6.10;99.90
39315;DHT22;28703;44.412;11.918;2024-02-15T02:40:08;6.10;99.90
39315;DHT22;28703;44.412;11.918;2024-02-15T02:42:50;6.00;99.90
39315;DHT22;28703;44.412;11.918;2024-02-15T02:45:19;6.00;99.90
39315;DHT22;28703;44.412;11.918;2024-02-15T02:47:53;5.90;99.90
39315;DHT22;28703;44.412;11.918;2024-02-15T02:50:20;5.90;99.90
39315;DHT22;28703;44.412;11.918;2024-02-15T02:52:46;5.80;99.90
39315;DHT22;28703;44.412;11.918;2024-02-15T02:55:14;5.80;99.90
39315;DHT22;28703;44.412;11.918;2024-02-15T02:57:40;5.70;99.90
39315;DHT22;28703;44.412;11.918;2024-02-15T03:00:09;5.70;99.90
39315;DHT22;28703;44.412;11.918;2024-02-15T03:02:40;5.70;99.90
39315;DHT22;28703;44.412;11.918;2024-02-15T03:05:07;5.70;99.90
39315;DHT22;28703;44.412;11.918;2024-02-15T03:07:34;5.70;99.90
39315;DHT22;28703;44.412;11.918;2024-02-15T03:10:04;5.60;99.90
39315;DHT22;28703;44.412;11.918;2024-02-15T03:12:30;5.70;99.90
39315;DHT22;28703;44.412;11.918;2024-02-15T03:14:56;5.70;99.90
39315;DHT22;28703;44.412;11.918;2024-02-15T03:17:23;5.60;99.90
39315;DHT22;28703;44.412;11.918;2024-02-15T03:19:49;5.60;99.90
39315;DHT22;28703;44.412;11.918;2024-02-15T03:22:15;5.50;99.90
39315;DHT22;28703;44.412;11.918;2024-02-15T03:24:41;5.50;99.90
39315;DHT22;28703;44.412;11.918;2024-02-15T03:27:08;5.50;99.90
39315;DHT22;28703;44.412;11.918;2024-02-15T03:29:35;5.40;99.90
39315;DHT22;28703;44.412;11.918;2024-02-15T03:32:02;5.50;99.90
39315;DHT22;28703;44.412;11.918;2024-02-15T03:34:32;5.50;99.90
39315;DHT22;28703;44.412;11.918;2024-02-15T03:36:58;5.50;99.90
39315;DHT22;28703;44.412;11.918;2024-02-15T03:39:24;5.50;99.90
39315;DHT22;28703;44.412;11.918;2024-02-15T03:41:50;5.60;99.90
39315;DHT22;28703;44.412;11.918;2024-02-15T03:44:18;5.60;99.90
39315;DHT22;28703;44.412;11.918;2024-02-15T03:46:45;5.70;99.90
39315;DHT22;28703;44.412;11.918;2024-02-15T03:49:19;5.60;99.90
39315;DHT22;28703;44.412;11.918;2024-02-15T03:51:45;5.60;99.90
39315;DHT22;28703;44.412;11.918;2024-02-15T03:54:12;5.50;99.90
39315;DHT22;28703;44.412;11.918;2024-02-15T03:56:48;5.40;99.90
39315;DHT22;28703;44.412;11.918;2024-02-15T03:59:17;5.50;99.90
39315;DHT22;28703;44.412;11.918;2024-02-15T04:01:43;5.50;99.90
39315;DHT22;28703;44.412;11.918;2024-02-15T04:04:09;5.40;99.90
39315;DHT22;28703;44.412;11.918;2024-02-15T04:06:35;5.40;99.90
39315;DHT22;28703;44.412;11.918;2024-02-15T04:09:01;5.30;99.90
39315;DHT22;28703;44.412;11.918;2024-02-15T04:11:27;5.30;99.90
39315;DHT22;28703;44.412;11.918;2024-02-15T04:13:53;5.30;99.90
39315;DHT22;28703;44.412;11.918;2024-02-15T04:16:18;5.30;99.90
39315;DHT22;28703;44.412;11.918;2024-02-15T04:18:44;5.30;99.90
39315;DHT22;28703;44.412;11.918;2024-02-15T04:21:10;5.30;99.90
39315;DHT22;28703;44.412;11.918;2024-02-15T04:23:36;5.40;99.90
39315;DHT22;28703;44.412;11.918;2024-02-15T04:26:02;5.40;99.90
39315;DHT22;28703;44.412;11.918;2024-02-15T04:28:29;5.40;99.90
39315;DHT22;28703;44.412;11.918;2024-02-15T04:30:54;5.40;99.90
39315;DHT22;28703;44.412;11.918;2024-02-15T04:33:21;5.40;99.90
39315;DHT22;28703;44.412;11.918;2024-02-15T04:35:46;5.40;99.90
39315;DHT22;28703;44.412;11.918;2024-02-15T04:38:15;5.30;99.90
39315;DHT22;28703;44.412;11.918;2024-02-15T04:40:41;5.20;99.90
39315;DHT22;28703;44.412;11.918;2024-02-15T04:43:07;5.10;99.90
39315;DHT22;28703;44.412;11.918;2024-02-15T04:45:34;5.10;99.90
39315;DHT22;28703;44.412;11.918;2024-02-15T04:48:01;5.00;99.90
39315;DHT22;28703;44.412;11.918;2024-02-15T04:50:29;5.00;99.90
39315;DHT22;28703;44.412;11.918;2024-02-15T04:52:55;4.90;99.90
39315;DHT22;28703;44.412;11.918;2024-02-15T04:55:21;4.90;99.90
39315;DHT22;28703;44.412;11.918;2024-02-15T04:57:51;4.90;99.90
39315;DHT22;28703;44.412;11.918;2024-02-15T05:00:21;4.90;99.90
39315;DHT22;28703;44.412;11.918;2024-02-15T05:02:48;4.90;99.90
39315;DHT22;28703;44.412;11.918;2024-02-15T05:05:15;4.90;99.90
39315;DHT22;28703;44.412;11.918;2024-02-15T05:07:42;5.00;99.90
39315;DHT22;28703;44.412;11.918;2024-02-15T05:10:08;5.00;99.90
39315;DHT22;28703;44.412;11.918;2024-02-15T05:12:36;5.00;99.90
39315;DHT22;28703;44.412;11.918;2024-02-15T05:15:02;5.10;99.90
39315;DHT22;28703;44.412;11.918;2024-02-15T05:17:37;5.20;99.90
39315;DHT22;28703;44.412;11.918;2024-02-15T05:20:07;5.20;99.90
39315;DHT22;28703;44.412;11.918;2024-02-15T05:22:38;5.20;99.90
39315;DHT22;28703;44.412;11.918;2024-02-15T05:25:06;5.30;99.90
39315;DHT22;28703;44.412;11.918;2024-02-15T05:27:33;5.30;99.90
39315;DHT22;28703;44.412;11.918;2024-02-15T05:29:59;5.30;99.90
39315;DHT22;28703;44.412;11.918;2024-02-15T05:32:25;5.30;99.90
39315;DHT22;28703;44.412;11.918;2024-02-15T05:34:52;5.40;99.90
39315;DHT22;28703;44.412;11.918;2024-02-15T05:37:20;5.30;99.90
39315;DHT22;28703;44.412;11.918;2024-02-15T05:39:46;5.20;99.90
39315;DHT22;28703;44.412;11.918;2024-02-15T05:42:12;5.10;99.90
39315;DHT22;28703;44.412;11.918;2024-02-15T05:44:38;5.00;99.90
39315;DHT22;28703;44.412;11.918;2024-02-15T05:47:04;5.00;99.90
39315;DHT22;28703;44.412;11.918;2024-02-15T05:49:29;4.90;99.90
39315;DHT22;28703;44.412;11.918;2024-02-15T05:51:55;4.90;99.90
39315;DHT22;28703;44.412;11.918;2024-02-15T05:54:21;4.90;99.90
39315;DHT22;28703;44.412;11.918;2024-02-15T05:56:50;4.90;99.90
39315;DHT22;28703;44.412;11.918;2024-02-15T05:59:21;4.90;99.90
39315;DHT22;28703;44.412;11.918;2024-02-15T06:01:47;4.80;99.90
39315;DHT22;28703;44.412;11.918;2024-02-15T06:04:15;4.80;99.90
39315;DHT22;28703;44.412;11.918;2024-02-15T06:06:40;4.80;99.90
39315;DHT22;28703;44.412;11.918;2024-02-15T06:09:06;4.90;99.90
39315;DHT22;28703;44.412;11.918;2024-02-15T06:11:32;4.90;99.90
39315;DHT22;28703;44.412;11.918;2024-02-15T06:13:58;4.90;99.90
39315;DHT22;28703;44.412;11.918;2024-02-15T06:16:23;4.90;99.90
39315;DHT22;28703;44.412;11.918;2024-02-15T06:18:49;5.00;99.90
39315;DHT22;28703;44.412;11.918;2024-02-15T06:21:15;5.00;99.90
39315;DHT22;28703;44.412;11.918;2024-02-15T06:23:42;5.10;99.90
39315;DHT22;28703;44.412;11.918;2024-02-15T06:26:07;5.10;99.90
39315;DHT22;28703;44.412;11.918;2024-02-15T06:28:33;5.20;99.90
39315;DHT22;28703;44.412;11.918;2024-02-15T06:31:17;5.20;99.90
39315;DHT22;28703;44.412;11.918;2024-02-15T06:34:02;5.30;99.90
39315;DHT22;28703;44.412;11.918;2024-02-15T06:36:52;5.30;99.90
39315;DHT22;28703;44.412;11.918;2024-02-15T06:39:37;5.30;99.90
39315;DHT22;28703;44.412;11.918;2024-02-15T06:42:16;5.20;99.90
39315;DHT22;28703;44.412;11.918;2024-02-15T06:44:44;5.10;99.90
39315;DHT22;28703;44.412;11.918;2024-02-15T06:47:11;5.00;99.90
39315;DHT22;28703;44.412;11.918;2024-02-15T06:49:38;5.00;99.90
39315;DHT22;28703;44.412;11.918;2024-02-15T06:52:10;4.90;99.90
39315;DHT22;28703;44.412;11.918;2024-02-15T06:54:40;4.90;99.90
39315;DHT22;28703;44.412;11.918;2024-02-15T06:57:06;4.80;99.90
39315;DHT22;28703;44.412;11.918;2024-02-15T06:59:33;4.80;99.90
39315;DHT22;28703;44.412;11.918;2024-02-15T07:02:00;4.90;99.90
39315;DHT22;28703;44.412;11.918;2024-02-15T07:04:26;5.00;99.90
39315;DHT22;28703;44.412;11.918;2024-02-15T07:06:52;5.00;99.90
39315;DHT22;28703;44.412;11.918;2024-02-15T07:09:20;5.10;99.90
39315;DHT22;28703;44.412;11.918;2024-02-15T07:11:48;5.10;99.90
39315;DHT22;28703;44.412;11.918;2024-02-15T07:14:14;5.10;99.90
39315;DHT22;28703;44.412;11.918;2024-02-15T07:16:45;5.10;99.90
39315;DHT22;28703;44.412;11.918;2024-02-15T07:19:11;5.20;99.90
39315;DHT22;28703;44.412;11.918;2024-02-15T07:21:37;5.20;99.90
39315;DHT22;28703;44.412;11.918;2024-02-15T07:24:04;5.30;99.90
39315;DHT22;28703;44.412;11.918;2024-02-15T07:26:30;5.40;99.90
39315;DHT22;28703;44.412;11.918;2024-02-15T07:28:56;5.40;99.90
39315;DHT22;28703;44.412;11.918;2024-02-15T07:31:26;5.50;99.90
39315;DHT22;28703;44.412;11.918;2024-02-15T07:33:53;5.60;99.90
39315;DHT22;28703;44.412;11.918;2024-02-15T07:36:22;5.60;99.90
39315;DHT22;28703;44.412;11.918;2024-02-15T07:38:52;5.70;99.90
39315;DHT22;28703;44.412;11.918;2024-02-15T07:41:26;5.80;99.90
39315;DHT22;28703;44.412;11.918;2024-02-15T07:43:54;5.80;99.90
39315;DHT22;28703;44.412;11.918;2024-02-15T07:46:20;5.90;99.90
39315;DHT22;28703;44.412;11.918;2024-02-15T07:48:47;6.00;99.90
39315;DHT22;28703;44.412;11.918;2024-02-15T07:51:17;6.10;99.90
39315;DHT22;28703;44.412;11.918;2024-02-15T07:53:45;6.20;99.90
39315;DHT22;28703;44.412;11.918;2024-02-15T07:56:12;6.20;99.90
39315;DHT22;28703;44.412;11.918;2024-02-15T07:58:42;6.30;99.90
39315;DHT22;28703;44.412;11.918;2024-02-15T08:01:14;6.30;99.90
39315;DHT22;28703;44.412;11.918;2024-02-15T08:03:42;6.40;99.90
39315;DHT22;28703;44.412;11.918;2024-02-15T08:06:15;6.50;99.90
39315;DHT22;28703;44.412;11.918;2024-02-15T08:08:45;6.60;99.90
39315;DHT22;28703;44.412;11.918;2024-02-15T08:11:14;6.70;99.90
39315;DHT22;28703;44.412;11.918;2024-02-15T08:13:51;6.80;99.90
39315;DHT22;28703;44.412;11.918;2024-02-15T08:16:20;6.90;99.90
39315;DHT22;28703;44.412;11.918;2024-02-15T08:18:50;7.00;99.90
39315;DHT22;28703;44.412;11.918;2024-02-15T08:21:33;7.10;99.90
39315;DHT22;28703;44.412;11.918;2024-02-15T08:24:01;7.30;99.90
39315;DHT22;28703;44.412;11.918;2024-02-15T08:26:36;7.30;99.90
39315;DHT22;28703;44.412;11.918;2024-02-15T08:29:03;7.50;99.90
39315;DHT22;28703;44.412;11.918;2024-02-15T08:31:29;7.60;99.90
39315;DHT22;28703;44.412;11.918;2024-02-15T08:33:59;7.80;99.90
39315;DHT22;28703;44.412;11.918;2024-02-15T08:36:26;8.00;99.90
39315;DHT22;28703;44.412;11.918;2024-02-15T08:38:52;8.20;99.90
39315;DHT22;28703;44.412;11.918;2024-02-15T08:41:17;8.30;99.90
39315;DHT22;28703;44.412;11.918;2024-02-15T08:43:45;8.50;99.90
39315;DHT22;28703;44.412;11.918;2024-02-15T08:46:11;8.70;99.90
39315;DHT22;28703;44.412;11.918;2024-02-15T08:48:38;8.90;99.90
39315;DHT22;28703;44.412;11.918;2024-02-15T08:51:04;9.00;99.90
39315;DHT22;28703;44.412;11.918;2024-02-15T08:53:31;9.10;99.90
39315;DHT22;28703;44.412;11.918;2024-02-15T08:55:57;9.20;99.90
39315;DHT22;28703;44.412;11.918;2024-02-15T08:58:23;9.40;99.90
39315;DHT22;28703;44.412;11.918;2024-02-15T09:00:49;9.60;99.90
39315;DHT22;28703;44.412;11.918;2024-02-15T09:03:15;9.80;99.90
39315;DHT22;28703;44.412;11.918;2024-02-15T09:05:40;10.00;99.90
39315;DHT22;28703;44.412;11.918;2024-02-15T09:08:07;10.10;99.90
39315;DHT22;28703;44.412;11.918;2024-02-15T09:10:33;10.20;99.90
39315;DHT22;28703;44.412;11.918;2024-02-15T09:12:59;10.40;99.90
39315;DHT22;28703;44.412;11.918;2024-02-15T09:15:24;10.60;99.90
39315;DHT22;28703;44.412;11.918;2024-02-15T09:17:50;10.70;99.90
39315;DHT22;28703;44.412;11.918;2024-02-15T09:20:17;10.80;99.90
39315;DHT22;28703;44.412;11.918;2024-02-15T09:22:52;10.90;99.90
39315;DHT22;28703;44.412;11.918;2024-02-15T09:25:20;11.00;99.90
39315;DHT22;28703;44.412;11.918;2024-02-15T09:27:49;11.10;99.90
39315;DHT22;28703;44.412;11.918;2024-02-15T09:30:15;11.30;99.90
39315;DHT22;28703;44.412;11.918;2024-02-15T09:32:42;11.50;99.90
39315;DHT22;28703;44.412;11.918;2024-02-15T09:35:10;11.60;99.90
39315;DHT22;28703;44.412;11.918;2024-02-15T09:37:47;11.70;99.90
39315;DHT22;28703;44.412;11.918;2024-02-15T09:40:16;11.80;99.90
39315;DHT22;28703;44.412;11.918;2024-02-15T09:42:43;11.90;99.90
39315;DHT22;28703;44.412;11.918;2024-02-15T09:45:13;12.00;99.90
39315;DHT22;28703;44.412;11.918;2024-02-15T09:47:41;12.10;99.90
39315;DHT22;28703;44.412;11.918;2024-02-15T09:50:08;12.20;99.90
39315;DHT22;28703;44.412;11.918;2024-02-15T09:52:38;12.20;99.90
39315;DHT22;28703;44.412;11.918;2024-02-15T09:55:05;12.30;99.90
39315;DHT22;28703;44.412;11.918;2024-02-15T09:57:31;12.30;99.90
39315;DHT22;28703;44.412;11.918;2024-02-15T09:59:58;12.50;99.90
39315;DHT22;28703;44.412;11.918;2024-02-15T10:02:35;12.60;99.90
39315;DHT22;28703;44.412;11.918;2024-02-15T10:05:02;12.70;99.90
39315;DHT22;28703;44.412;11.918;2024-02-15T10:07:28;12.80;99.90
39315;DHT22;28703;44.412;11.918;2024-02-15T10:09:55;12.90;99.90
39315;DHT22;28703;44.412;11.918;2024-02-15T10:12:21;13.10;99.90
39315;DHT22;28703;44.412;11.918;2024-02-15T10:14:50;13.20;99.90
39315;DHT22;28703;44.412;11.918;2024-02-15T10:17:18;13.30;99.90
39315;DHT22;28703;44.412;11.918;2024-02-15T10:19:45;13.40;99.90
39315;DHT22;28703;44.412;11.918;2024-02-15T10:22:27;13.60;99.90
39315;DHT22;28703;44.412;11.918;2024-02-15T10:25:13;13.70;99.90
39315;DHT22;28703;44.412;11.918;2024-02-15T10:27:42;13.90;99.90
39315;DHT22;28703;44.412;11.918;2024-02-15T10:30:20;14.00;99.90
39315;DHT22;28703;44.412;11.918;2024-02-15T10:32:46;14.10;99.90
39315;DHT22;28703;44.412;11.918;2024-02-15T10:35:20;14.10;99.90
39315;DHT22;28703;44.412;11.918;2024-02-15T10:37:48;14.30;99.90
39315;DHT22;28703;44.412;11.918;2024-02-15T10:40:21;14.40;99.90
39315;DHT22;28703;44.412;11.918;2024-02-15T10:42:51;14.50;99.90
39315;DHT22;28703;44.412;11.918;2024-02-15T10:45:17;14.60;99.90
39315;DHT22;28703;44.412;11.918;2024-02-15T10:47:46;14.60;99.90
39315;DHT22;28703;44.412;11.918;2024-02-15T10:50:13;14.70;99.90
39315;DHT22;28703;44.412;11.918;2024-02-15T10:52:51;14.70;99.90
39315;DHT22;28703;44.412;11.918;2024-02-15T10:57:57;14.90;99.90
39315;DHT22;28703;44.412;11.918;2024-02-15T11:00:26;15.00;99.90
39315;DHT22;28703;44.412;11.918;2024-02-15T11:03:04;15.00;99.90
39315;DHT22;28703;44.412;11.918;2024-02-15T11:05:37;15.10;99.90
39315;DHT22;28703;44.412;11.918;2024-02-15T11:08:08;15.20;99.90
39315;DHT22;28703;44.412;11.918;2024-02-15T11:10:35;15.30;99.90
39315;DHT22;28703;44.412;11.918;2024-02-15T11:13:02;15.30;99.90
39315;DHT22;28703;44.412;11.918;2024-02-15T11:18:07;15.50;99.90
39315;DHT22;28703;44.412;11.918;2024-02-15T11:23:03;15.50;99.90
39315;DHT22;28703;44.412;11.918;2024-02-15T11:25:32;15.50;99.90
39315;DHT22;28703;44.412;11.918;2024-02-15T11:30:50;15.60;99.90
39315;DHT22;28703;44.412;11.918;2024-02-15T11:33:34;15.50;99.90
39315;DHT22;28703;44.412;11.918;2024-02-15T11:36:11;15.50;99.90
39315;DHT22;28703;44.412;11.918;2024-02-15T11:38:39;15.50;99.90
39315;DHT22;28703;44.412;11.918;2024-02-15T11:41:18;15.50;99.90
39315;DHT22;28703;44.412;11.918;2024-02-15T11:43:47;15.60;99.90
39315;DHT22;28703;44.412;11.918;2024-02-15T11:46:27;15.60;99.90
39315;DHT22;28703;44.412;11.918;2024-02-15T11:48:58;15.70;99.90
39315;DHT22;28703;44.412;11.918;2024-02-15T11:51:26;15.80;99.90
39315;DHT22;28703;44.412;11.918;2024-02-15T11:54:02;15.90;99.90
39315;DHT22;28703;44.412;11.918;2024-02-15T11:59:44;16.10;99.90
39315;DHT22;28703;44.412;11.918;2024-02-15T12:02:38;16.20;99.90
39315;DHT22;28703;44.412;11.918;2024-02-15T12:05:23;16.20;99.90
39315;DHT22;28703;44.412;11.918;2024-02-15T12:08:07;16.10;99.90
39315;DHT22;28703;44.412;11.918;2024-02-15T12:11:01;16.10;99.90
39315;DHT22;28703;44.412;11.918;2024-02-15T12:13:52;16.10;99.90
39315;DHT22;28703;44.412;11.918;2024-02-15T12:16:36;16.20;99.90
39315;DHT22;28703;44.412;11.918;2024-02-15T12:19:20;16.20;99.90
39315;DHT22;28703;44.412;11.918;2024-02-15T12:21:47;16.20;99.90
39315;DHT22;28703;44.412;11.918;2024-02-15T12:24:14;16.20;99.90
39315;DHT22;28703;44.412;11.918;2024-02-15T12:26:42;16.10;99.90
39315;DHT22;28703;44.412;11.918;2024-02-15T12:29:08;16.00;99.90
39315;DHT22;28703;44.412;11.918;2024-02-15T12:31:38;16.10;99.90
39315;DHT22;28703;44.412;11.918;2024-02-15T12:34:04;16.00;99.90
39315;DHT22;28703;44.412;11.918;2024-02-15T12:36:36;16.00;99.90
39315;DHT22;28703;44.412;11.918;2024-02-15T12:39:04;16.00;99.90
39315;DHT22;28703;44.412;11.918;2024-02-15T12:41:39;16.00;99.90
39315;DHT22;28703;44.412;11.918;2024-02-15T12:44:08;16.00;99.90
39315;DHT22;28703;44.412;11.918;2024-02-15T12:46:36;16.00;99.90
39315;DHT22;28703;44.412;11.918;2024-02-15T12:49:24;16.00;99.90
39315;DHT22;28703;44.412;11.918;2024-02-15T12:51:54;16.00;99.90
39315;DHT22;28703;44.412;11.918;2024-02-15T12:54:23;16.00;99.90
39315;DHT22;28703;44.412;11.918;2024-02-15T12:56:49;16.00;99.90
39315;DHT22;28703;44.412;11.918;2024-02-15T12:59:18;15.90;99.90
39315;DHT22;28703;44.412;11.918;2024-02-15T13:01:49;15.90;99.90
39315;DHT22;28703;44.412;11.918;2024-02-15T13:04:24;15.90;99.90
39315;DHT22;28703;44.412;11.918;2024-02-15T13:06:50;15.80;99.90
39315;DHT22;28703;44.412;11.918;2024-02-15T13:09:16;15.70;99.90
39315;DHT22;28703;44.412;11.918;2024-02-15T13:11:42;15.70;99.90
39315;DHT22;28703;44.412;11.918;2024-02-15T13:14:11;15.70;99.90
39315;DHT22;28703;44.412;11.918;2024-02-15T13:16:37;15.70;99.90
39315;DHT22;28703;44.412;11.918;2024-02-15T13:19:03;15.70;99.90
39315;DHT22;28703;44.412;11.918;2024-02-15T13:21:33;15.70;99.90
39315;DHT22;28703;44.412;11.918;2024-02-15T13:24:00;15.60;99.90
39315;DHT22;28703;44.412;11.918;2024-02-15T13:26:30;15.60;99.90
39315;DHT22;28703;44.412;11.918;2024-02-15T13:28:58;15.50;99.90
39315;DHT22;28703;44.412;11.918;2024-02-15T13:31:24;15.50;99.90
39315;DHT22;28703;44.412;11.918;2024-02-15T13:33:49;15.40;99.90
39315;DHT22;28703;44.412;11.918;2024-02-15T13:36:15;15.50;99.90
39315;DHT22;28703;44.412;11.918;2024-02-15T13:38:41;15.40;99.90
39315;DHT22;28703;44.412;11.918;2024-02-15T13:41:08;15.40;99.90
39315;DHT22;28703;44.412;11.918;2024-02-15T13:43:34;15.30;99.90
39315;DHT22;28703;44.412;11.918;2024-02-15T13:46:01;15.30;99.90
39315;DHT22;28703;44.412;11.918;2024-02-15T13:48:30;15.20;99.90
39315;DHT22;28703;44.412;11.918;2024-02-15T13:50:57;15.20;99.90
39315;DHT22;28703;44.412;11.918;2024-02-15T13:53:23;15.20;99.90
39315;DHT22;28703;44.412;11.918;2024-02-15T13:55:50;15.20;99.90
39315;DHT22;28703;44.412;11.918;2024-02-15T13:58:17;15.10;99.90
39315;DHT22;28703;44.412;11.918;2024-02-15T14:00:43;15.10;99.90
39315;DHT22;28703;44.412;11.918;2024-02-15T14:03:11;15.00;99.90
39315;DHT22;28703;44.412;11.918;2024-02-15T14:05:36;15.00;99.90
39315;DHT22;28703;44.412;11.918;2024-02-15T14:08:05;15.00;99.90
39315;DHT22;28703;44.412;11.918;2024-02-15T14:10:34;14.90;99.90
39315;DHT22;28703;44.412;11.918;2024-02-15T14:13:02;14.90;99.90
39315;DHT22;28703;44.412;11.918;2024-02-15T14:15:29;14.90;99.90
39315;DHT22;28703;44.412;11.918;2024-02-15T14:17:55;14.90;99.90
39315;DHT22;28703;44.412;11.918;2024-02-15T14:20:22;14.90;99.90
39315;DHT22;28703;44.412;11.918;2024-02-15T14:22:50;14.90;99.90
39315;DHT22;28703;44.412;11.918;2024-02-15T14:25:22;14.90;99.90
39315;DHT22;28703;44.412;11.918;2024-02-15T14:27:48;14.90;99.90
39315;DHT22;28703;44.412;11.918;2024-02-15T14:30:14;14.90;99.90
39315;DHT22;28703;44.412;11.918;2024-02-15T14:32:59;14.80;99.90
39315;DHT22;28703;44.412;11.918;2024-02-15T14:35:34;14.80;99.90
39315;DHT22;28703;44.412;11.918;2024-02-15T14:38:08;14.80;99.90
39315;DHT22;28703;44.412;11.918;2024-02-15T14:40:37;14.80;99.90
39315;DHT22;28703;44.412;11.918;2024-02-15T14:43:03;14.80;99.90
39315;DHT22;28703;44.412;11.918;2024-02-15T14:45:36;14.80;99.90
39315;DHT22;28703;44.412;11.918;2024-02-15T14:48:02;14.80;99.90
39315;DHT22;28703;44.412;11.918;2024-02-15T14:50:31;14.70;99.90
39315;DHT22;28703;44.412;11.918;2024-02-15T14:52:56;14.70;99.90
39315;DHT22;28703;44.412;11.918;2024-02-15T14:55:22;14.70;99.90
39315;DHT22;28703;44.412;11.918;2024-02-15T14:57:48;14.70;99.90
39315;DHT22;28703;44.412;11.918;2024-02-15T15:00:14;14.70;99.90
39315;DHT22;28703;44.412;11.918;2024-02-15T15:02:46;14.60;99.90
39315;DHT22;28703;44.412;11.918;2024-02-15T15:05:15;14.60;99.90
39315;DHT22;28703;44.412;11.918;2024-02-15T15:08:00;14.60;99.90
39315;DHT22;28703;44.412;11.918;2024-02-15T15:10:47;14.60;99.90
39315;DHT22;28703;44.412;11.918;2024-02-15T15:13:34;14.60;99.90
39315;DHT22;28703;44.412;11.918;2024-02-15T15:16:01;14.60;99.90
39315;DHT22;28703;44.412;11.918;2024-02-15T15:18:28;14.50;99.90
39315;DHT22;28703;44.412;11.918;2024-02-15T15:20:58;14.50;99.90
39315;DHT22;28703;44.412;11.918;2024-02-15T15:23:25;14.50;99.90
39315;DHT22;28703;44.412;11.918;2024-02-15T15:25:51;14.40;99.90
39315;DHT22;28703;44.412;11.918;2024-02-15T15:28:17;14.40;99.90
39315;DHT22;28703;44.412;11.918;2024-02-15T15:30:44;14.40;99.90
39315;DHT22;28703;44.412;11.918;2024-02-15T15:33:17;14.30;99.90
39315;DHT22;28703;44.412;11.918;2024-02-15T15:35:43;14.30;99.90
39315;DHT22;28703;44.412;11.918;2024-02-15T15:38:10;14.20;99.90
39315;DHT22;28703;44.412;11.918;2024-02-15T15:40:36;14.20;99.90
39315;DHT22;28703;44.412;11.918;2024-02-15T15:43:02;14.10;99.90
39315;DHT22;28703;44.412;11.918;2024-02-15T15:45:34;14.10;99.90
39315;DHT22;28703;44.412;11.918;2024-02-15T15:48:01;14.00;99.90